Time;durP1;ratioP1;P1;durP2;ratioP2;P2;SDS_P1;SDS_P2;PMS_P1;PMS_P2;Temp;Humidity;BMP_temperature;BMP_pressure;BME280_temperature;BME280_humidity;BME280_pressure;Samples;Min_cycle;Max_cycle;Signal;HPM_P1;HPM_P2
2023/07/16 00:01:38;;;;;;;6.75;6.15;;;;;;;;;;5097841;28;20047;-81
2023/07/16 00:04:04;;;;;;;6.50;6.07;;;;;;;;;;5096899;28;20031;-80
2023/07/16 00:06:30;;;;;;;7.22;5.20;;;;;;;;;;5094811;28;20130;-81
2023/07/16 00:08:56;;;;;;;6.72;6.03;;;;;;;;;;5096941;28;20051;-82
2023/07/16 00:11:22;;;;;;;5.75;5.35;;;;;;;;;;5096622;28;20043;-80
2023/07/16 00:13:48;;;;;;;7.28;5.28;;;;;;;;;;5096435;28;20032;-81
2023/07/16 00:16:14;;;;;;;6.13;5.40;;;;;;;;;;5095291;28;20063;-80
2023/07/16 00:18:44;;;;;;;8.95;6.13;;;;;;;;;;5094746;28;20100;-80
2023/07/16 00:21:10;;;;;;;6.38;5.53;;;;;;;;;;5094377;28;20028;-82
2023/07/16 00:23:36;;;;;;;9.32;5.78;;;;;;;;;;5093276;28;20039;-81
2023/07/16 00:26:02;;;;;;;9.48;5.75;;;;;;;;;;5094357;28;20032;-81
2023/07/16 00:28:29;;;;;;;8.95;5.85;;;;;;;;;;5093895;28;20043;-82
2023/07/16 00:30:55;;;;;;;6.40;5.90;;;;;;;;;;5093808;28;20036;-81
2023/07/16 00:33:21;;;;;;;8.25;5.57;;;;;;;;;;5093740;28;20472;-82
2023/07/16 00:35:49;;;;;;;8.27;6.32;;;;;;;;;;5092399;28;20044;-83
2023/07/16 00:38:16;;;;;;;7.63;6.10;;;;;;;;;;5093939;28;20162;-81
2023/07/16 00:40:43;;;;;;;11.32;6.13;;;;;;;;;;5075126;28;20413;-80
2023/07/16 00:43:09;;;;;;;8.07;6.50;;;;;;;;;;5075328;28;20105;-83
2023/07/16 00:45:35;;;;;;;11.18;6.80;;;;;;;;;;5092950;28;20115;-81
2023/07/16 00:48:01;;;;;;;9.93;6.93;;;;;;;;;;5093219;28;20121;-82
2023/07/16 00:50:27;;;;;;;8.27;6.82;;;;;;;;;;5074847;28;20071;-81
2023/07/16 00:52:53;;;;;;;10.80;7.38;;;;;;;;;;5092593;28;20036;-81
2023/07/16 00:55:20;;;;;;;8.77;7.35;;;;;;;;;;5092124;28;20549;-80
2023/07/16 00:57:46;;;;;;;8.07;7.30;;;;;;;;;;5076395;28;20044;-80
2023/07/16 01:00:12;;;;;;;7.15;6.45;;;;;;;;;;5093626;28;20027;-81
2023/07/16 01:02:38;;;;;;;7.10;6.57;;;;;;;;;;5094374;28;20032;-82
2023/07/16 01:05:04;;;;;;;7.80;7.15;;;;;;;;;;5092686;28;20046;-81
2023/07/16 01:07:31;;;;;;;8.45;7.53;;;;;;;;;;5075845;28;20038;-81
2023/07/16 01:09:57;;;;;;;7.75;6.95;;;;;;;;;;5098943;28;20067;-80
2023/07/16 01:12:23;;;;;;;8.90;7.05;;;;;;;;;;5100033;28;20426;-81
2023/07/16 01:14:51;;;;;;;7.82;7.07;;;;;;;;;;5101705;28;20064;-81
2023/07/16 01:17:17;;;;;;;8.27;7.57;;;;;;;;;;5105599;28;20071;-80
2023/07/16 01:19:43;;;;;;;9.15;7.53;;;;;;;;;;5085465;28;20502;-81
2023/07/16 01:22:33;;;;;;;8.07;7.32;;;;;;;;;;5096161;28;20039;-82
2023/07/16 01:25:06;;;;;;;7.85;7.13;;;;;;;;;;5095264;28;20093;-81
2023/07/16 01:27:50;;;;;;;7.90;7.10;;;;;;;;;;5098053;28;20032;-81
2023/07/16 01:30:16;;;;;;;14.50;6.85;;;;;;;;;;5100016;28;20048;-82
2023/07/16 01:32:43;;;;;;;7.18;6.35;;;;;;;;;;5102878;28;20028;-82
2023/07/16 01:35:09;;;;;;;8.07;6.70;;;;;;;;;;5103800;28;20481;-82
2023/07/16 01:37:35;;;;;;;9.48;7.10;;;;;;;;;;5101344;28;20040;-82
2023/07/16 01:40:02;;;;;;;7.53;6.93;;;;;;;;;;5106684;28;20537;-81
2023/07/16 01:42:29;;;;;;;11.70;7.72;;;;;;;;;;5102223;28;20016;-82
2023/07/16 01:44:55;;;;;;;7.65;6.82;;;;;;;;;;5082606;28;20040;-80
2023/07/16 01:47:30;;;;;;;13.02;6.90;;;;;;;;;;5113572;28;20040;-82
2023/07/16 01:49:56;;;;;;;8.52;6.55;;;;;;;;;;5103108;28;20490;-81
2023/07/16 01:52:22;;;;;;;6.88;6.25;;;;;;;;;;5096159;28;20039;-80
2023/07/16 01:54:49;;;;;;;6.55;5.97;;;;;;;;;;5101528;28;20032;-82
2023/07/16 01:57:15;;;;;;;7.00;5.57;;;;;;;;;;5100282;28;20040;-82
2023/07/16 01:59:40;;;;;;;7.13;6.07;;;;;;;;;;5099761;28;20028;-81
2023/07/16 02:02:06;;;;;;;6.35;5.82;;;;;;;;;;5099330;28;20047;-81
2023/07/16 02:04:32;;;;;;;8.80;6.18;;;;;;;;;;5104008;28;20036;-83
2023/07/16 02:06:58;;;;;;;8.15;7.45;;;;;;;;;;5106133;28;20520;-82
2023/07/16 02:09:25;;;;;;;7.70;6.75;;;;;;;;;;5104901;28;20434;-83
2023/07/16 02:11:51;;;;;;;7.43;6.50;;;;;;;;;;5103216;28;20060;-83
2023/07/16 02:14:18;;;;;;;7.50;6.72;;;;;;;;;;5104491;28;20035;-83
2023/07/16 02:16:45;;;;;;;6.80;6.03;;;;;;;;;;5105902;28;20048;-81
2023/07/16 02:19:11;;;;;;;9.57;5.88;;;;;;;;;;5089000;28;20556;-82
2023/07/16 02:21:42;;;;;;;6.28;5.55;;;;;;;;;;5111394;28;20032;-81
2023/07/16 02:24:08;;;;;;;7.70;5.68;;;;;;;;;;5112245;28;20043;-82
2023/07/16 02:26:35;;;;;;;8.52;5.93;;;;;;;;;;5106913;28;20043;-81
2023/07/16 02:29:01;;;;;;;11.77;6.07;;;;;;;;;;5086812;28;20406;-81
2023/07/16 02:31:27;;;;;;;9.18;4.93;;;;;;;;;;5103147;28;20403;-81
2023/07/16 02:33:53;;;;;;;8.32;5.68;;;;;;;;;;5101581;28;20123;-82
2023/07/16 02:36:19;;;;;;;8.50;7.70;;;;;;;;;;5100747;28;20525;-82
2023/07/16 02:38:45;;;;;;;6.63;6.13;;;;;;;;;;5099449;28;20118;-82
2023/07/16 02:41:11;;;;;;;11.07;5.70;;;;;;;;;;5099734;28;20028;-82
2023/07/16 02:43:37;;;;;;;5.95;5.35;;;;;;;;;;5098196;28;20122;-82
2023/07/16 02:46:03;;;;;;;7.00;5.22;;;;;;;;;;5081572;28;20126;-83
2023/07/16 02:48:29;;;;;;;7.75;5.28;;;;;;;;;;5097285;28;20036;-81
2023/07/16 02:50:55;;;;;;;5.10;4.70;;;;;;;;;;5100152;28;20024;-83
2023/07/16 02:53:22;;;;;;;7.13;5.10;;;;;;;;;;5101727;28;20550;-82
2023/07/16 02:55:48;;;;;;;10.18;5.57;;;;;;;;;;5101967;28;20055;-81
2023/07/16 02:58:14;;;;;;;11.13;5.55;;;;;;;;;;5101658;28;20048;-83
2023/07/16 03:00:40;;;;;;;9.05;5.50;;;;;;;;;;5101800;28;20110;-81
2023/07/16 03:03:06;;;;;;;10.10;4.90;;;;;;;;;;5084058;28;20032;-81
2023/07/16 03:05:32;;;;;;;7.45;5.35;;;;;;;;;;5101460;28;20074;-80
2023/07/16 03:07:58;;;;;;;9.15;5.60;;;;;;;;;;5102142;28;20028;-82
2023/07/16 03:10:26;;;;;;;7.50;5.80;;;;;;;;;;5084813;28;20028;-82
2023/07/16 03:12:53;;;;;;;10.57;5.45;;;;;;;;;;5100118;28;20062;-80
2023/07/16 03:15:20;;;;;;;6.57;5.40;;;;;;;;;;5100383;28;20039;-82
2023/07/16 03:17:46;;;;;;;8.23;5.85;;;;;;;;;;5101244;28;20043;-78
2023/07/16 03:20:13;;;;;;;6.35;5.75;;;;;;;;;;5102514;28;20032;-82
2023/07/16 03:22:39;;;;;;;6.15;5.55;;;;;;;;;;5083295;28;20036;-82
2023/07/16 03:25:06;;;;;;;6.57;5.75;;;;;;;;;;5099797;28;20036;-82
2023/07/16 03:27:32;;;;;;;7.75;5.88;;;;;;;;;;5099327;28;20091;-83
2023/07/16 03:30:00;;;;;;;9.63;4.95;;;;;;;;;;5080781;28;20387;-82
2023/07/16 03:32:27;;;;;;;13.13;5.47;;;;;;;;;;5095390;28;20122;-82
2023/07/16 03:34:53;;;;;;;11.57;5.75;;;;;;;;;;5094106;28;20632;-80
2023/07/16 03:37:19;;;;;;;12.85;5.45;;;;;;;;;;5092487;28;20043;-82
2023/07/16 03:39:47;;;;;;;9.75;6.10;;;;;;;;;;5080781;28;20039;-81
2023/07/16 03:42:13;;;;;;;8.20;5.47;;;;;;;;;;5100201;28;20032;-83
2023/07/16 03:44:39;;;;;;;8.13;5.60;;;;;;;;;;5101213;28;20028;-82
2023/07/16 03:47:05;;;;;;;11.70;5.80;;;;;;;;;;5099992;28;20028;-83
2023/07/16 03:49:31;;;;;;;9.93;5.40;;;;;;;;;;5102269;28;20036;-82
2023/07/16 03:51:57;;;;;;;6.38;5.20;;;;;;;;;;5106340;28;20059;-83
2023/07/16 03:54:23;;;;;;;7.50;5.75;;;;;;;;;;5087387;28;20521;-83
2023/07/16 03:56:49;;;;;;;8.88;5.40;;;;;;;;;;5102808;28;20039;-81
2023/07/16 03:59:15;;;;;;;7.68;5.47;;;;;;;;;;5105022;28;20036;-82
2023/07/16 04:01:42;;;;;;;7.72;5.38;;;;;;;;;;5104170;28;20055;-82
2023/07/16 04:04:09;;;;;;;8.57;5.60;;;;;;;;;;5104171;28;20042;-82
2023/07/16 04:06:35;;;;;;;9.32;6.03;;;;;;;;;;5102300;28;20476;-82
2023/07/16 04:09:01;;;;;;;6.82;5.70;;;;;;;;;;5101553;28;20066;-83
2023/07/16 04:11:26;;;;;;;5.65;5.05;;;;;;;;;;5099611;28;20530;-81
2023/07/16 04:13:52;;;;;;;13.57;6.10;;;;;;;;;;5094916;28;20036;-81
2023/07/16 04:16:18;;;;;;;12.10;5.70;;;;;;;;;;5074300;28;20043;-82
2023/07/16 04:18:44;;;;;;;10.93;5.40;;;;;;;;;;5098996;28;20085;-81
2023/07/16 04:21:10;;;;;;;9.50;5.63;;;;;;;;;;5109043;28;20038;-82
2023/07/16 04:23:36;;;;;;;6.88;5.15;;;;;;;;;;5115454;28;20035;-83
2023/07/16 04:26:02;;;;;;;5.38;4.88;;;;;;;;;;5114130;28;20020;-83
2023/07/16 04:28:28;;;;;;;5.60;5.18;;;;;;;;;;5112716;28;20036;-83
2023/07/16 04:30:54;;;;;;;7.65;6.85;;;;;;;;;;5085831;28;20071;-82
2023/07/16 04:33:20;;;;;;;10.98;5.25;;;;;;;;;;5094990;28;20530;-81
2023/07/16 04:35:46;;;;;;;8.38;5.30;;;;;;;;;;5079955;28;20032;-80
2023/07/16 04:38:13;;;;;;;14.02;5.95;;;;;;;;;;5099500;28;20055;-82
2023/07/16 04:40:38;;;;;;;9.10;6.90;;;;;;;;;;5101667;28;20245;-82
2023/07/16 04:43:05;;;;;;;10.27;5.68;;;;;;;;;;5103849;28;20032;-83
2023/07/16 04:45:31;;;;;;;9.57;5.32;;;;;;;;;;5095442;28;20047;-81
2023/07/16 04:47:57;;;;;;;9.85;5.65;;;;;;;;;;5091986;28;20035;-84
2023/07/16 04:50:23;;;;;;;8.38;5.40;;;;;;;;;;5093309;28;20032;-82
2023/07/16 04:52:49;;;;;;;8.68;5.70;;;;;;;;;;5093947;28;20085;-81
2023/07/16 04:55:15;;;;;;;7.93;5.82;;;;;;;;;;5092851;28;20036;-82
2023/07/16 04:57:41;;;;;;;7.20;5.57;;;;;;;;;;5092247;28;20135;-81
2023/07/16 05:00:07;;;;;;;8.02;6.20;;;;;;;;;;5092856;28;20466;-81
2023/07/16 05:02:33;;;;;;;7.63;6.20;;;;;;;;;;5093872;28;20322;-81
2023/07/16 05:04:59;;;;;;;7.72;5.88;;;;;;;;;;5095627;28;20077;-81
2023/07/16 05:07:25;;;;;;;11.60;5.53;;;;;;;;;;5095153;28;20086;-82
2023/07/16 05:09:51;;;;;;;8.93;5.30;;;;;;;;;;5078093;28;20032;-80
2023/07/16 05:12:17;;;;;;;6.60;5.47;;;;;;;;;;5096644;28;20052;-82
2023/07/16 05:14:45;;;;;;;8.43;5.90;;;;;;;;;;5095318;28;20036;-82
2023/07/16 05:17:11;;;;;;;6.60;6.10;;;;;;;;;;5095023;28;20036;-82
2023/07/16 05:19:37;;;;;;;7.90;5.68;;;;;;;;;;5096920;28;20418;-83
2023/07/16 05:22:03;;;;;;;6.72;5.72;;;;;;;;;;5095631;28;20032;-82
2023/07/16 05:24:29;;;;;;;9.48;5.63;;;;;;;;;;5095712;28;20042;-83
2023/07/16 05:26:55;;;;;;;8.60;6.20;;;;;;;;;;5096342;28;20043;-81
2023/07/16 05:29:21;;;;;;;5.90;5.50;;;;;;;;;;5095698;28;20036;-81
2023/07/16 05:31:47;;;;;;;9.07;5.75;;;;;;;;;;5096713;28;20039;-80
2023/07/16 05:34:13;;;;;;;7.45;6.60;;;;;;;;;;5099077;28;20036;-80
2023/07/16 05:36:39;;;;;;;7.60;6.50;;;;;;;;;;5081007;28;20047;-81
2023/07/16 05:39:05;;;;;;;8.02;5.85;;;;;;;;;;5063593;28;20057;-82
2023/07/16 05:41:31;;;;;;;10.52;6.47;;;;;;;;;;5097357;28;20035;-83
2023/07/16 05:43:57;;;;;;;6.75;5.45;;;;;;;;;;5097497;28;20233;-82
2023/07/16 05:46:23;;;;;;;6.97;6.15;;;;;;;;;;5097742;28;20085;-81
2023/07/16 05:48:49;;;;;;;6.38;5.88;;;;;;;;;;5096747;28;20047;-81
2023/07/16 05:51:15;;;;;;;6.70;6.20;;;;;;;;;;5095570;28;20036;-82
2023/07/16 05:53:41;;;;;;;11.00;6.03;;;;;;;;;;5095485;28;20040;-80
2023/07/16 05:56:07;;;;;;;6.07;5.47;;;;;;;;;;5096107;28;20070;-81
2023/07/16 05:58:33;;;;;;;6.53;5.70;;;;;;;;;;5097618;28;20071;-81
2023/07/16 06:00:59;;;;;;;6.68;6.18;;;;;;;;;;5096586;28;20068;-81
2023/07/16 06:03:25;;;;;;;5.75;5.25;;;;;;;;;;5095628;28;20032;-81
2023/07/16 06:05:51;;;;;;;8.65;6.32;;;;;;;;;;5095442;28;20042;-82
2023/07/16 06:08:17;;;;;;;6.38;5.97;;;;;;;;;;5098022;28;20028;-81
2023/07/16 06:10:43;;;;;;;8.15;6.50;;;;;;;;;;5097405;28;20093;-81
2023/07/16 06:13:09;;;;;;;6.43;5.93;;;;;;;;;;5097470;28;20044;-82
2023/07/16 06:15:36;;;;;;;8.98;5.88;;;;;;;;;;5097873;28;20464;-83
2023/07/16 06:18:02;;;;;;;6.70;6.10;;;;;;;;;;5080185;28;20905;-83
2023/07/16 06:20:29;;;;;;;7.25;6.65;;;;;;;;;;5096792;28;20035;-82
2023/07/16 06:22:54;;;;;;;7.18;6.60;;;;;;;;;;5078194;28;20040;-82
2023/07/16 06:25:20;;;;;;;7.18;6.57;;;;;;;;;;5098473;28;20101;-81
2023/07/16 06:27:47;;;;;;;7.97;6.45;;;;;;;;;;5099130;28;20036;-81
2023/07/16 06:30:13;;;;;;;6.40;5.80;;;;;;;;;;5099535;28;20044;-84
2023/07/16 06:32:39;;;;;;;6.35;5.82;;;;;;;;;;5096874;28;20060;-82
2023/07/16 06:35:05;;;;;;;6.57;4.85;;;;;;;;;;5096766;28;20146;-83
2023/07/16 06:37:31;;;;;;;5.78;4.55;;;;;;;;;;5096660;28;20043;-82
2023/07/16 06:39:57;;;;;;;7.90;5.05;;;;;;;;;;5096253;28;20111;-81
2023/07/16 06:42:23;;;;;;;6.47;5.88;;;;;;;;;;5097038;28;20097;-81
2023/07/16 06:44:49;;;;;;;13.07;5.72;;;;;;;;;;5098322;28;20573;-82
2023/07/16 06:47:15;;;;;;;6.32;5.70;;;;;;;;;;5063046;28;20097;-83
2023/07/16 06:49:41;;;;;;;5.45;4.85;;;;;;;;;;5097653;28;20044;-80
2023/07/16 06:52:08;;;;;;;6.63;6.03;;;;;;;;;;5095414;28;20119;-83
2023/07/16 06:54:34;;;;;;;6.40;5.50;;;;;;;;;;5097301;28;20040;-82
2023/07/16 06:57:00;;;;;;;10.18;6.28;;;;;;;;;;5094447;28;20047;-84
2023/07/16 06:59:26;;;;;;;5.55;5.15;;;;;;;;;;5095609;28;20036;-81
2023/07/16 07:01:52;;;;;;;9.52;6.10;;;;;;;;;;5094830;28;20032;-83
2023/07/16 07:04:18;;;;;;;6.47;5.50;;;;;;;;;;5115031;28;20036;-81
2023/07/16 07:06:44;;;;;;;7.13;6.43;;;;;;;;;;5115131;28;20067;-82
2023/07/16 07:09:10;;;;;;;16.65;5.53;;;;;;;;;;5111845;28;20032;-81
2023/07/16 07:11:36;;;;;;;9.98;5.82;;;;;;;;;;5105463;28;20059;-82
2023/07/16 07:14:02;;;;;;;7.00;5.25;;;;;;;;;;5099697;28;20034;-83
2023/07/16 07:16:28;;;;;;;9.75;5.32;;;;;;;;;;5062437;28;20131;-83
2023/07/16 07:18:55;;;;;;;6.68;6.03;;;;;;;;;;5094446;28;20066;-82
2023/07/16 07:21:21;;;;;;;6.60;5.43;;;;;;;;;;5096067;28;20039;-82
2023/07/16 07:23:47;;;;;;;5.78;5.10;;;;;;;;;;5100632;28;20044;-79
2023/07/16 07:26:13;;;;;;;7.05;5.25;;;;;;;;;;5104573;28;20061;-81
2023/07/16 07:28:39;;;;;;;5.53;5.22;;;;;;;;;;5099425;28;20036;-82
2023/07/16 07:31:05;;;;;;;5.35;4.85;;;;;;;;;;5094032;28;20130;-82
2023/07/16 07:33:32;;;;;;;7.18;5.35;;;;;;;;;;5095270;28;20074;-83
2023/07/16 07:35:58;;;;;;;6.53;5.63;;;;;;;;;;5093718;28;20038;-80
2023/07/16 07:38:24;;;;;;;7.47;5.85;;;;;;;;;;5092651;28;20196;-80
2023/07/16 07:40:50;;;;;;;6.20;5.80;;;;;;;;;;5093451;28;20035;-81
2023/07/16 07:43:16;;;;;;;6.70;5.30;;;;;;;;;;5093822;28;20590;-80
2023/07/16 07:45:42;;;;;;;6.07;5.57;;;;;;;;;;5093549;28;20384;-83
2023/07/16 07:48:08;;;;;;;8.10;6.40;;;;;;;;;;5091947;28;20093;-81
2023/07/16 07:50:34;;;;;;;5.65;5.00;;;;;;;;;;5093050;28;20028;-81
2023/07/16 07:53:00;;;;;;;6.13;5.57;;;;;;;;;;5092372;28;20082;-82
2023/07/16 07:55:26;;;;;;;5.88;5.28;;;;;;;;;;5092492;28;20080;-81
2023/07/16 07:57:52;;;;;;;7.18;5.40;;;;;;;;;;5092148;28;20040;-82
2023/07/16 08:00:18;;;;;;;5.63;5.22;;;;;;;;;;5094233;28;20024;-81
2023/07/16 08:02:44;;;;;;;6.00;5.25;;;;;;;;;;5096241;28;20051;-82
2023/07/16 08:05:10;;;;;;;5.35;4.95;;;;;;;;;;5095769;28;20032;-83
2023/07/16 08:07:36;;;;;;;5.43;5.03;;;;;;;;;;5094902;28;20036;-83
2023/07/16 08:10:02;;;;;;;7.60;4.50;;;;;;;;;;5096474;28;20030;-83
2023/07/16 08:12:30;;;;;;;5.18;4.75;;;;;;;;;;5095798;28;20059;-82
2023/07/16 08:14:56;;;;;;;5.15;4.85;;;;;;;;;;5098379;28;20078;-82
2023/07/16 08:17:22;;;;;;;5.75;4.70;;;;;;;;;;5096012;28;20056;-82
2023/07/16 08:19:48;;;;;;;5.30;4.90;;;;;;;;;;5096802;28;20529;-83
2023/07/16 08:22:14;;;;;;;8.13;4.72;;;;;;;;;;5094810;28;20040;-80
2023/07/16 08:24:40;;;;;;;7.35;5.65;;;;;;;;;;5095852;28;20410;-83
2023/07/16 08:27:06;;;;;;;6.63;5.00;;;;;;;;;;5093834;28;20089;-82
2023/07/16 08:29:35;;;;;;;7.82;5.13;;;;;;;;;;5076272;28;20056;-83
2023/07/16 08:32:00;;;;;;;7.13;5.32;;;;;;;;;;5092599;28;20528;-83
2023/07/16 08:34:27;;;;;;;5.90;5.25;;;;;;;;;;5093778;28;20123;-80
2023/07/16 08:36:53;;;;;;;6.18;5.45;;;;;;;;;;5095411;28;20044;-81
2023/07/16 08:39:20;;;;;;;13.32;5.20;;;;;;;;;;5097258;28;20501;-84
2023/07/16 08:41:46;;;;;;;5.45;4.85;;;;;;;;;;5098706;28;20132;-83
2023/07/16 08:44:13;;;;;;;8.25;4.35;;;;;;;;;;5097907;28;20406;-81
2023/07/16 08:46:39;;;;;;;6.38;4.20;;;;;;;;;;5099978;28;20043;-83
2023/07/16 08:49:07;;;;;;;7.55;4.40;;;;;;;;;;5098594;28;20410;-83
2023/07/16 08:51:33;;;;;;;6.60;4.00;;;;;;;;;;5099746;28;20395;-83
2023/07/16 08:53:59;;;;;;;8.30;4.20;;;;;;;;;;5101141;28;20038;-83
2023/07/16 08:56:25;;;;;;;4.22;3.70;;;;;;;;;;5101215;28;20075;-85
2023/07/16 08:58:56;;;;;;;4.25;3.85;;;;;;;;;;5099227;28;20059;-83
2023/07/16 09:01:22;;;;;;;7.53;4.07;;;;;;;;;;5098768;28;20075;-84
2023/07/16 09:03:48;;;;;;;5.07;3.50;;;;;;;;;;5099995;28;20089;-81
2023/07/16 09:06:14;;;;;;;3.53;3.33;;;;;;;;;;5098566;28;20028;-82
2023/07/16 09:08:40;;;;;;;4.10;3.80;;;;;;;;;;5099005;28;20126;-84
2023/07/16 09:11:07;;;;;;;4.70;4.13;;;;;;;;;;5096640;28;20044;-81
2023/07/16 09:13:33;;;;;;;3.58;3.28;;;;;;;;;;5079799;28;20054;-84
2023/07/16 09:15:59;;;;;;;3.80;3.50;;;;;;;;;;5098933;28;20043;-82
2023/07/16 09:18:25;;;;;;;4.72;3.42;;;;;;;;;;5099240;28;20036;-83
2023/07/16 09:21:00;;;;;;;3.78;3.58;;;;;;;;;;5098901;28;20058;-82
2023/07/16 09:23:26;;;;;;;5.70;3.58;;;;;;;;;;5097172;28;20405;-84
2023/07/16 09:25:53;;;;;;;4.25;3.70;;;;;;;;;;5096184;28;20115;-83
2023/07/16 09:28:19;;;;;;;4.20;3.78;;;;;;;;;;5097216;28;20127;-83
2023/07/16 09:30:46;;;;;;;6.28;3.53;;;;;;;;;;5096490;28;20036;-83
2023/07/16 09:33:16;;;;;;;3.30;3.08;;;;;;;;;;5098130;28;20541;-83
2023/07/16 09:35:42;;;;;;;5.20;4.78;;;;;;;;;;5097809;28;20047;-83
2023/07/16 09:38:09;;;;;;;4.10;3.80;;;;;;;;;;5096727;28;20100;-82
2023/07/16 09:40:38;;;;;;;4.20;3.90;;;;;;;;;;5097667;28;20053;-82
2023/07/16 09:43:04;;;;;;;7.32;5.22;;;;;;;;;;5096716;28;20031;-81
2023/07/16 09:45:31;;;;;;;3.88;3.50;;;;;;;;;;5107975;28;20013;-80
2023/07/16 09:47:56;;;;;;;3.63;3.42;;;;;;;;;;5118335;28;20031;-83
2023/07/16 09:50:23;;;;;;;3.67;3.38;;;;;;;;;;5115718;28;20052;-82
2023/07/16 09:52:49;;;;;;;3.88;3.58;;;;;;;;;;5112676;28;20149;-82
2023/07/16 09:55:15;;;;;;;3.92;3.70;;;;;;;;;;5102476;28;20043;-81
2023/07/16 09:57:41;;;;;;;3.40;3.20;;;;;;;;;;5101082;28;20044;-83
2023/07/16 10:00:13;;;;;;;3.58;3.38;;;;;;;;;;5098455;28;20123;-83
2023/07/16 10:02:40;;;;;;;3.40;3.20;;;;;;;;;;5096960;28;20077;-82
2023/07/16 10:05:19;;;;;;;3.90;3.53;;;;;;;;;;5095398;28;20040;-82
2023/07/16 10:07:50;;;;;;;4.35;3.75;;;;;;;;;;5094721;28;20414;-85
2023/07/16 10:10:17;;;;;;;3.58;3.38;;;;;;;;;;5094853;28;20461;-84
2023/07/16 10:12:57;;;;;;;3.83;3.53;;;;;;;;;;5094920;28;20102;-84
2023/07/16 10:15:27;;;;;;;4.27;3.87;;;;;;;;;;5095991;28;20043;-83
2023/07/16 10:17:53;;;;;;;;;;;;;;;;;;5097331;28;20050;-82
2023/07/16 10:20:27;;;;;;;5.20;3.90;;;;;;;;;;5101499;28;19959;-83
2023/07/16 10:22:53;;;;;;;4.47;3.53;;;;;;;;;;5098823;28;20029;-83
2023/07/16 10:25:19;;;;;;;3.33;2.88;;;;;;;;;;5106009;28;20032;-82
2023/07/16 10:27:47;;;;;;;4.07;3.45;;;;;;;;;;5096476;28;20034;-81
2023/07/16 10:30:13;;;;;;;4.22;3.88;;;;;;;;;;5094890;28;20059;-83
2023/07/16 10:32:39;;;;;;;4.13;3.65;;;;;;;;;;5096228;28;20395;-81
2023/07/16 10:35:05;;;;;;;4.22;3.80;;;;;;;;;;5077277;28;20036;-82
2023/07/16 10:37:31;;;;;;;5.45;4.45;;;;;;;;;;5096667;28;20097;-82
2023/07/16 10:39:58;;;;;;;3.75;3.55;;;;;;;;;;5095745;28;20031;-83
2023/07/16 10:42:24;;;;;;;4.38;3.97;;;;;;;;;;5095047;28;20418;-83
2023/07/16 10:44:52;;;;;;;4.43;3.70;;;;;;;;;;5093608;28;20467;-83
2023/07/16 10:47:19;;;;;;;3.33;3.13;;;;;;;;;;5094239;28;20038;-85
2023/07/16 10:49:46;;;;;;;4.95;3.92;;;;;;;;;;5094669;28;20126;-82
2023/07/16 10:52:12;;;;;;;3.30;3.10;;;;;;;;;;5095663;28;20032;-84
2023/07/16 10:54:39;;;;;;;3.78;3.50;;;;;;;;;;5095006;28;20039;-83
2023/07/16 10:57:05;;;;;;;4.95;3.88;;;;;;;;;;5094081;28;20048;-82
2023/07/16 10:59:32;;;;;;;3.80;3.50;;;;;;;;;;5094181;28;20036;-82
2023/07/16 11:01:58;;;;;;;4.57;3.70;;;;;;;;;;5094131;28;20178;-83
2023/07/16 11:04:24;;;;;;;3.67;3.47;;;;;;;;;;5096057;28;20040;-83
2023/07/16 11:06:50;;;;;;;3.72;3.20;;;;;;;;;;5075429;28;20044;-82
2023/07/16 11:09:17;;;;;;;3.60;3.30;;;;;;;;;;5092637;28;20036;-83
2023/07/16 11:11:43;;;;;;;3.97;3.30;;;;;;;;;;5092005;28;20109;-83
2023/07/16 11:14:09;;;;;;;4.13;3.83;;;;;;;;;;5093021;28;20044;-81
2023/07/16 11:16:35;;;;;;;4.32;3.17;;;;;;;;;;5091755;28;20089;-81
2023/07/16 11:19:01;;;;;;;4.22;3.83;;;;;;;;;;5092907;28;20044;-83
2023/07/16 11:21:27;;;;;;;3.92;3.63;;;;;;;;;;5095795;28;20028;-81
2023/07/16 11:23:53;;;;;;;5.03;3.63;;;;;;;;;;5093524;28;20045;-81
2023/07/16 11:26:19;;;;;;;3.90;3.63;;;;;;;;;;5092059;28;20043;-82
2023/07/16 11:28:46;;;;;;;6.22;3.70;;;;;;;;;;5092545;28;20028;-82
2023/07/16 11:31:15;;;;;;;6.50;3.40;;;;;;;;;;5092980;28;20509;-82
2023/07/16 11:33:42;;;;;;;3.87;3.30;;;;;;;;;;5094031;28;20540;-83
2023/07/16 11:36:08;;;;;;;8.27;3.97;;;;;;;;;;5091288;28;20819;-83
2023/07/16 11:38:37;;;;;;;3.70;3.28;;;;;;;;;;5092189;28;20040;-80
2023/07/16 11:41:03;;;;;;;3.00;2.90;;;;;;;;;;5091652;28;20047;-82
2023/07/16 11:43:36;;;;;;;3.40;3.20;;;;;;;;;;5091919;28;20051;-82
2023/07/16 11:46:02;;;;;;;4.18;3.88;;;;;;;;;;5091691;28;20032;-83
2023/07/16 11:48:29;;;;;;;4.00;3.70;;;;;;;;;;5093550;28;20054;-83
2023/07/16 11:50:55;;;;;;;4.10;3.80;;;;;;;;;;5091757;28;20036;-83
2023/07/16 11:53:21;;;;;;;4.03;3.80;;;;;;;;;;5092423;28;20028;-82
2023/07/16 11:55:46;;;;;;;3.13;2.80;;;;;;;;;;5093263;28;20043;-81
2023/07/16 11:58:13;;;;;;;3.33;3.13;;;;;;;;;;5092639;28;20597;-83
2023/07/16 12:00:39;;;;;;;4.38;3.97;;;;;;;;;;5093364;28;20410;-83
2023/07/16 12:03:04;;;;;;;3.40;3.20;;;;;;;;;;5093230;28;20032;-84
2023/07/16 12:05:30;;;;;;;4.07;3.47;;;;;;;;;;5090792;28;20040;-82
2023/07/16 12:07:57;;;;;;;3.83;3.53;;;;;;;;;;5091103;28;20035;-83
2023/07/16 12:10:22;;;;;;;3.47;3.28;;;;;;;;;;5093041;28;20119;-82
2023/07/16 12:12:48;;;;;;;3.50;3.30;;;;;;;;;;5097529;28;20156;-82
2023/07/16 12:15:14;;;;;;;3.67;3.38;;;;;;;;;;5095641;28;20039;-82
2023/07/16 12:17:40;;;;;;;5.07;3.85;;;;;;;;;;5094272;28;20051;-83
2023/07/16 12:20:07;;;;;;;3.70;3.50;;;;;;;;;;5097546;28;20028;-82
2023/07/16 12:22:33;;;;;;;3.78;3.47;;;;;;;;;;5094211;28;20063;-83
2023/07/16 12:24:59;;;;;;;3.90;3.60;;;;;;;;;;5093083;28;20729;-83
2023/07/16 12:27:24;;;;;;;4.47;3.70;;;;;;;;;;5106198;28;20044;-82
2023/07/16 12:29:52;;;;;;;3.85;3.53;;;;;;;;;;5115092;28;20096;-82
2023/07/16 12:32:20;;;;;;;4.78;4.28;;;;;;;;;;5111935;28;20036;-83
2023/07/16 12:34:46;;;;;;;5.03;3.85;;;;;;;;;;5114651;28;20040;-83
2023/07/16 12:37:12;;;;;;;3.55;3.20;;;;;;;;;;5102982;28;20092;-82
2023/07/16 12:39:38;;;;;;;3.85;3.50;;;;;;;;;;5096106;28;20101;-84
2023/07/16 12:42:04;;;;;;;4.32;3.92;;;;;;;;;;5078465;28;20181;-82
2023/07/16 12:44:30;;;;;;;5.13;3.88;;;;;;;;;;5095558;28;20028;-82
2023/07/16 12:46:56;;;;;;;7.32;3.75;;;;;;;;;;5093329;28;20036;-81
2023/07/16 12:49:22;;;;;;;5.10;4.00;;;;;;;;;;5096964;28;20038;-84
2023/07/16 12:51:48;;;;;;;4.22;3.92;;;;;;;;;;5097177;28;20044;-83
2023/07/16 12:54:14;;;;;;;5.03;4.53;;;;;;;;;;5096613;28;20044;-83
2023/07/16 12:56:40;;;;;;;4.93;3.45;;;;;;;;;;5097103;28;20407;-84
2023/07/16 12:59:06;;;;;;;3.53;3.33;;;;;;;;;;5077190;28;20059;-84
2023/07/16 13:01:32;;;;;;;3.58;3.20;;;;;;;;;;5098248;28;20032;-84
2023/07/16 13:03:58;;;;;;;3.78;3.42;;;;;;;;;;5095610;28;20028;-83
2023/07/16 13:06:24;;;;;;;3.50;3.30;;;;;;;;;;5094350;28;20448;-83
2023/07/16 13:08:50;;;;;;;6.72;3.55;;;;;;;;;;5095422;28;20042;-83
2023/07/16 13:11:16;;;;;;;3.63;3.42;;;;;;;;;;5094476;28;20074;-80
2023/07/16 13:13:43;;;;;;;3.55;3.35;;;;;;;;;;5100196;28;20039;-81
2023/07/16 13:16:09;;;;;;;3.72;3.42;;;;;;;;;;5104336;28;20032;-82
2023/07/16 13:18:36;;;;;;;3.88;3.47;;;;;;;;;;5099726;28;20065;-82
2023/07/16 13:21:03;;;;;;;6.60;3.88;;;;;;;;;;5076695;28;20136;-85
2023/07/16 13:23:29;;;;;;;4.18;3.88;;;;;;;;;;5096965;28;20040;-83
2023/07/16 13:25:56;;;;;;;13.70;3.83;;;;;;;;;;5097238;28;20521;-82
2023/07/16 13:28:23;;;;;;;3.65;3.35;;;;;;;;;;5097296;28;20032;-81
2023/07/16 13:30:49;;;;;;;6.07;3.70;;;;;;;;;;5097794;28;20046;-82
2023/07/16 13:33:15;;;;;;;3.40;3.20;;;;;;;;;;5101372;28;20115;-81
2023/07/16 13:35:41;;;;;;;3.55;3.35;;;;;;;;;;5106364;28;20036;-84
2023/07/16 13:38:07;;;;;;;3.20;3.10;;;;;;;;;;5101917;28;20044;-83
2023/07/16 13:40:33;;;;;;;4.93;2.80;;;;;;;;;;5104448;28;20039;-82
2023/07/16 13:42:59;;;;;;;4.55;3.25;;;;;;;;;;5100733;28;20044;-83
2023/07/16 13:45:25;;;;;;;3.75;3.38;;;;;;;;;;5098914;28;20032;-82
2023/07/16 13:47:52;;;;;;;4.93;4.10;;;;;;;;;;5097175;28;20068;-83
2023/07/16 13:50:18;;;;;;;5.03;4.60;;;;;;;;;;5095884;28;20032;-81
2023/07/16 13:52:45;;;;;;;4.72;3.60;;;;;;;;;;5095744;28;20043;-82
2023/07/16 13:55:11;;;;;;;4.95;3.42;;;;;;;;;;5094850;28;20028;-82
2023/07/16 13:57:36;;;;;;;3.92;3.63;;;;;;;;;;5096754;28;20096;-83
2023/07/16 14:00:04;;;;;;;4.03;3.72;;;;;;;;;;5094961;28;20530;-83
2023/07/16 14:02:31;;;;;;;4.05;3.25;;;;;;;;;;5096138;28;20100;-83
2023/07/16 14:04:57;;;;;;;4.82;4.43;;;;;;;;;;5096160;28;20122;-83
2023/07/16 14:07:22;;;;;;;4.20;3.85;;;;;;;;;;5097130;28;20039;-82
2023/07/16 14:09:48;;;;;;;4.20;3.90;;;;;;;;;;5098477;28;20032;-82
2023/07/16 14:12:14;;;;;;;7.68;3.95;;;;;;;;;;5098691;28;20056;-83
2023/07/16 14:14:40;;;;;;;4.05;3.38;;;;;;;;;;5098279;28;20498;-84
2023/07/16 14:17:06;;;;;;;3.70;3.40;;;;;;;;;;5096726;28;20043;-82
2023/07/16 14:19:32;;;;;;;7.07;3.80;;;;;;;;;;5098609;28;20028;-83
2023/07/16 14:21:58;;;;;;;4.15;3.85;;;;;;;;;;5096748;28;20069;-83
2023/07/16 14:24:24;;;;;;;5.82;3.95;;;;;;;;;;5097922;28;20038;-82
2023/07/16 14:26:50;;;;;;;5.93;4.03;;;;;;;;;;5097715;28;20413;-82
2023/07/16 14:29:16;;;;;;;4.25;3.85;;;;;;;;;;5080432;28;20502;-82
2023/07/16 14:31:42;;;;;;;5.10;4.32;;;;;;;;;;5097681;28;20032;-83
2023/07/16 14:34:08;;;;;;;6.07;4.38;;;;;;;;;;5098395;28;20555;-81
2023/07/16 14:36:34;;;;;;;4.80;4.40;;;;;;;;;;5097647;28;20101;-83
2023/07/16 14:39:00;;;;;;;4.00;3.70;;;;;;;;;;5098206;28;20036;-82